Datos. Málaga, Centro Meteorológico

Actualizado: jueves, 30 julio 2015 a las 05:42 hora oficial
Ind. climatológico: 6156X -  Altitud (m): 54
Latitud36° 43' 4'' N - Longitud4° 28' 54'' O -  PosiciónVer localización
MunicipioMálaga (Málaga) - Ver predicción
Registros - de
Fecha y hora oficial

 

Temp. (°C)

 

V. vien. (km/h)

 

Dir. viento

 

Racha (km/h)

 

Dir. racha

 

Prec. (mm)

 

Presión (hPa)

 

Tend. (hPa)

 

Humedad (%)

 

30/07/2015 05:00 24.7 4 8-OesteOeste 8 8-OesteOeste 0.0 1002.3 -0.7 87
30/07/2015 04:00 24.9 4 5-SudesteSudeste 10 4-EsteEste 0.0 1002.7 -0.6 87
30/07/2015 03:00 25.6 8 5-SudesteSudeste 13 5-SudesteSudeste 0.0 1003.2 0.2 82
30/07/2015 02:00 25.9 3 8-OesteOeste 6 8-OesteOeste 0.0 1003.0 0.2 79
30/07/2015 01:00 26.6 4 5-SudesteSudeste 10 6-SurSur 0.0 1003.3 0.9 76
30/07/2015 00:00 28.3 2 9-NoroesteNoroeste 10 8-OesteOeste 0.0 1003.0 1.1 63
29/07/2015 23:00 27.6 2 9-NoroesteNoroeste 6 4-EsteEste 0.0 1002.8 1.2 67
29/07/2015 22:00 27.7 4 5-SudesteSudeste 10 5-SudesteSudeste 0.0 1002.4 0.7 66
29/07/2015 21:00 28.3 8 5-SudesteSudeste 18 5-SudesteSudeste 0.0 1001.9 -0.3 66
29/07/2015 20:00 30.7 11 5-SudesteSudeste 21 5-SudesteSudeste 0.0 1001.6 -1.2 53
29/07/2015 19:00 32.0 12 5-SudesteSudeste 20 5-SudesteSudeste 0.0 1001.7 -1.9 50
29/07/2015 18:00 31.6 13 5-SudesteSudeste 21 5-SudesteSudeste 0.0 1002.2 -2.4 52
29/07/2015 17:00 31.3 12 5-SudesteSudeste 22 5-SudesteSudeste 0.0 1002.8 -2.3 60
29/07/2015 16:00 31.3 13 5-SudesteSudeste 23 5-SudesteSudeste 0.0 1003.6 -1.8 63
29/07/2015 15:00 29.9 17 5-SudesteSudeste 26 4-EsteEste 0.0 1004.6 -0.4 69
29/07/2015 14:00 29.1 15 5-SudesteSudeste 26 5-SudesteSudeste 0.0 1005.1 0.4 72
29/07/2015 13:00 29.7 12 5-SudesteSudeste 22 5-SudesteSudeste 0.0 1005.4 0.0 66
29/07/2015 12:00 32.3 11 6-SurSur 18 5-SudesteSudeste 0.0 1005.0 -0.5 57
29/07/2015 11:00 30.9 2 8-OesteOeste 10 7-SudoesteSudoeste 0.0 1004.7 -0.5 58
29/07/2015 10:00 29.2 4 7-SudoesteSudoeste 12 8-OesteOeste 0.0 1005.4 -0.1 69
29/07/2015 09:00 26.3 5 8-OesteOeste 13 8-OesteOeste 0.0 1005.5 0.5 88
29/07/2015 08:00 25.4 3 8-OesteOeste 9 7-SudoesteSudoeste 0.0 1005.2 0.8 90
29/07/2015 07:00 26.2 3 5-SudesteSudeste 17 4-EsteEste 0.0 1005.5 0.9 79
29/07/2015 06:00 26.4 12 4-EsteEste 22 4-EsteEste 0.0 1005.0 0.3 79
First Page First Page First Page Last Page
Lineas por página
Página   de  
Compartir:  
En esta página podrá acceder, en forma gráfica y en tabla, a las observaciones horarias de las últimas 24 horas, así como a los valores extremos y acumulados desde las 00 horas del día hasta la hora de actualización indicada, obtenidos en la red de estaciones de AEMET. También podrá acceder a los resúmenes diarios de estas estaciones en los últimos 7 días.

En el mapa aparecen estaciones con valor númerico y otras representadas por un punto. En las primeras, al pasar el ratón, aparece un desplegable con la información completa de la estación. Las estaciones representadas por un punto son estaciones de la red climatológica, con transmisión de datos superior a la hora, por lo que al seleccionarlas pueden no aparecer los últimos datos.

Los datos presentados han sido únicamente sometidos a controles automáticos de calidad en tiempo real, por lo que no puede garantizarse la ausencia de errores.
© AEMET. Autorizado el uso de la información y su reproducción citando a AEMET como autora de la misma.